This is the latest recevied weather packets stored in our database for station/object DL8BNG-13. If no packets are shown the sender has not sent any weather packets the latest 10 day(s).
| Time | Temp. | Humidity | Pressure | Rain* | Wind** | Luminosity | Snow |
|---|---|---|---|---|---|---|---|
| 1777635902 | 22.78° C | 28% | - | 0 mm | - | - | - |
| 1777635002 | 21.67° C | 28% | - | 0 mm | - | - | - |
| 1777634102 | 21.11° C | 29% | - | 0 mm | - | - | - |
| 1777633202 | 21.11° C | 28% | - | 0 mm | - | - | - |
| 1777632302 | 20.56° C | 29% | - | 0 mm | - | - | - |
| 1777631403 | 20° C | 30% | - | 0 mm | - | - | - |
| 1777630502 | 20° C | 31% | - | 0 mm | - | - | - |
| 1777629607 | 18.89° C | 31% | - | 0 mm | - | - | - |
| 1777628702 | 18.89° C | 32% | - | 0 mm | - | - | - |
| 1777627802 | 18.89° C | 31% | - | 0 mm | - | - | - |
| 1777626902 | 18.33° C | 32% | - | 0 mm | - | - | - |
| 1777626002 | 18.33° C | 33% | - | 0 mm | - | - | - |
| 1777625102 | 17.22° C | 34% | - | 0 mm | - | - | - |
| 1777624203 | 17.22° C | 34% | - | 0 mm | - | - | - |
| 1777623302 | 16.11° C | 35% | - | 0 mm | - | - | - |
| 1777622402 | 15.56° C | 36% | - | 0 mm | - | - | - |
| 1777621503 | 15° C | 38% | - | 0 mm | - | - | - |
| 1777620602 | 15° C | 38% | - | 0 mm | - | - | - |
| 1777619702 | 13.89° C | 42% | - | 0 mm | - | - | - |
| 1777618802 | 13.33° C | 43% | - | 0 mm | - | - | - |
| 1777617902 | 12.78° C | 45% | - | 0 mm | - | - | - |
| 1777617003 | 12.22° C | 46% | - | 0 mm | - | - | - |
| 1777616102 | 11.67° C | 48% | - | 0 mm | - | - | - |
| 1777615202 | 11.67° C | 50% | - | 0 mm | - | - | - |
| 1777614303 | 9.44° C | 56% | - | 0 mm | - | - | - |
* Rain since midnight (hover to see other rain measurements)
** Current wind speed in m/s (hover to see current wind gust speed)